Kezdőlap
METAR-TAF:

METAR-TAF

Repülőterek :

Csungking, Kína

földrajzi szélesség: 29-31N, földrajzi hosszúság: 106-29E, magasság: 351 m

Jelenlegi meteorológiai megfigyelések

A jelentés 17 perccel ezelõtt készült, 04:00 UTC
Észak-északkeleti szél 8 kt
Hőmérséklet 15°C
Páratartalom 82%
Légköri nyomás 1009 hPa
Látótávolság: 8000 m
Kevés felhő 1100 lábon
Szórványos felhőzet 2300 lábon

METAR: ZUCK 250400Z 03004MPS 8000 FEW011 SCT023 15/12 Q1009 NOSIG

Idő: 12:17 (04:17 UTC)

Előrejelzés

A jelentés 7 órával és 11 perccel ezelõtt készült, 21:06 UTC
Az előrejelzés 25-én 00 óra UTC és 25-én 24 óra UTC között érvényes
Kelet-északkeleti szél 6 kt
Látótávolság: 3000 m
Szórványos felhőzet 5000 lábon
enyhe esõ
25-én 00 óra UTC és 25-én 04 óra UTC között ideiglenes
Szórványos felhőzet 3000 lábon
Kevés felhő 4000 lábon, Cumulonimbus.
zivatar, esõ

TAF: ZUCK 242106Z 2500/2524 06003MPS 3000 -RA SCT050 TX17/2500Z TN10/2521Z TEMPO 2500/2504 TSRA SCT030 FEW040CB

Meteorológiai megfigyelések és előrejelzések több, mint 4000 repülőtéren (METAR és TAF jelentéseket).

A térképen piros és sárga pontok jelzik az elérhető meteorológiai állomásokat.

Mozgassa az egeret a pont fölött, hogy megjelenjen az állomás neve.

Azután kattintson az időjárási megfigyelések és előrejelzések megtekintéséhez.

A térkép megváltoztatása: kattintson a fekete keresztel jelölt zöld gombra ráközelítéshez, a vonallal jelölt zöld gombra távolításhoz, vagy a zöld nyilakra a szomszédos térképek eléréséhez.


METAR-TAF: